Time;durP1;ratioP1;P1;durP2;ratioP2;P2;SDS_P1;SDS_P2;PMS_P1;PMS_P2;Temp;Humidity;BMP_temperature;BMP_pressure;BME280_temperature;BME280_humidity;BME280_pressure;Samples;Min_cycle;Max_cycle;Signal;HPM_P1;HPM_P2
2024/01/26 00:00:41;;;;;;;96.40;33.53;;;;;;;;;;5092479;28;20805;-87
2024/01/26 00:03:07;;;;;;;104.68;34.95;;;;;;;;;;5126060;27;20398;-87
2024/01/26 00:05:33;;;;;;;93.32;33.17;;;;;;;;;;5091991;28;20402;-88
2024/01/26 00:07:59;;;;;;;99.00;33.50;;;;;;;;;;5093082;28;20451;-88
2024/01/26 00:10:25;;;;;;;95.93;33.92;;;;;;;;;;5119335;27;20405;-88
2024/01/26 00:12:51;;;;;;;90.43;33.10;;;;;;;;;;5110343;27;20418;-87
2024/01/26 00:15:18;;;;;;;87.70;32.20;;;;;;;;;;5094720;28;20400;-87
2024/01/26 00:17:44;;;;;;;85.27;32.07;;;;;;;;;;5125674;27;20419;-87
2024/01/26 00:20:10;;;;;;;84.97;30.95;;;;;;;;;;5099073;28;20397;-87
2024/01/26 00:22:36;;;;;;;79.53;30.77;;;;;;;;;;5125387;27;20453;-86
2024/01/26 00:25:03;;;;;;;74.47;30.13;;;;;;;;;;5123204;27;20396;-87
2024/01/26 00:27:29;;;;;;;74.87;29.67;;;;;;;;;;5097460;28;20801;-87
2024/01/26 00:29:55;;;;;;;70.28;29.23;;;;;;;;;;5101392;28;20422;-87
2024/01/26 00:32:21;;;;;;;76.32;30.50;;;;;;;;;;5079861;28;20406;-87
2024/01/26 00:34:47;;;;;;;71.65;29.00;;;;;;;;;;5115656;27;20398;-86
2024/01/26 00:37:13;;;;;;;72.82;29.23;;;;;;;;;;5115642;27;20416;-87
2024/01/26 00:39:40;;;;;;;75.07;30.40;;;;;;;;;;5113635;27;20888;-87
2024/01/26 00:42:06;;;;;;;71.97;29.00;;;;;;;;;;5074112;28;20908;-87
2024/01/26 00:44:32;;;;;;;71.25;29.88;;;;;;;;;;5082841;28;20497;-87
2024/01/26 00:46:58;;;;;;;75.87;29.33;;;;;;;;;;5080005;28;20392;-87
2024/01/26 00:49:24;;;;;;;75.88;30.67;;;;;;;;;;5102025;28;20434;-87
2024/01/26 00:51:50;;;;;;;79.85;30.98;;;;;;;;;;5110574;28;20396;-87
2024/01/26 00:54:16;;;;;;;79.43;30.73;;;;;;;;;;5119828;27;20872;-87
2024/01/26 00:56:43;;;;;;;68.68;28.80;;;;;;;;;;5091095;27;20878;-87
2024/01/26 00:59:09;;;;;;;66.88;28.63;;;;;;;;;;5108690;27;20474;-87
2024/01/26 01:01:35;;;;;;;64.55;27.85;;;;;;;;;;5093794;28;20396;-87
2024/01/26 01:04:01;;;;;;;62.83;27.73;;;;;;;;;;5076541;27;20452;-87
2024/01/26 01:06:28;;;;;;;61.63;26.35;;;;;;;;;;5113290;27;20400;-87
2024/01/26 01:08:54;;;;;;;44.47;22.00;;;;;;;;;;5097873;28;20414;-88
2024/01/26 01:11:21;;;;;;;46.80;22.20;;;;;;;;;;5090573;28;20401;-87
2024/01/26 01:13:47;;;;;;;44.67;21.83;;;;;;;;;;5097929;28;20975;-88
2024/01/26 01:16:13;;;;;;;41.83;21.05;;;;;;;;;;5100855;28;20404;-87
2024/01/26 01:18:39;;;;;;;42.15;20.98;;;;;;;;;;5110536;28;20431;-87
2024/01/26 01:21:05;;;;;;;47.15;21.67;;;;;;;;;;5103290;28;20804;-87
2024/01/26 01:23:31;;;;;;;42.88;22.17;;;;;;;;;;5096819;28;20404;-87
2024/01/26 01:25:57;;;;;;;43.42;21.90;;;;;;;;;;5078717;28;20428;-88
2024/01/26 01:28:24;;;;;;;42.28;21.23;;;;;;;;;;5107998;27;20405;-88
2024/01/26 01:30:50;;;;;;;42.35;22.23;;;;;;;;;;5107914;28;20402;-88
2024/01/26 01:33:16;;;;;;;42.03;22.20;;;;;;;;;;5102147;28;20419;-87
2024/01/26 01:35:42;;;;;;;40.50;22.35;;;;;;;;;;5110687;28;20526;-87
2024/01/26 01:38:08;;;;;;;38.60;20.45;;;;;;;;;;5110195;27;20432;-87
2024/01/26 01:40:34;;;;;;;42.33;22.48;;;;;;;;;;5090084;28;20436;-87
2024/01/26 01:43:01;;;;;;;37.88;21.45;;;;;;;;;;5114653;27;20407;-87
2024/01/26 01:45:27;;;;;;;35.58;20.42;;;;;;;;;;5110671;28;20412;-87
2024/01/26 01:47:53;;;;;;;36.83;20.55;;;;;;;;;;5106366;28;20903;-89
2024/01/26 01:50:19;;;;;;;36.95;20.40;;;;;;;;;;5113480;27;20397;-87
2024/01/26 01:52:46;;;;;;;33.00;20.03;;;;;;;;;;5109790;28;20400;-87
2024/01/26 01:55:14;;;;;;;32.40;19.73;;;;;;;;;;5112964;27;20495;-87
2024/01/26 01:57:41;;;;;;;31.67;19.80;;;;;;;;;;5111061;27;20441;-87
2024/01/26 02:00:17;;;;;;;33.05;20.52;;;;;;;;;;5097099;27;20736;-87
2024/01/26 02:02:47;;;;;;;32.10;19.58;;;;;;;;;;5094081;28;20402;-87
2024/01/26 02:05:14;;;;;;;30.90;20.23;;;;;;;;;;5112363;27;20398;-88
2024/01/26 02:07:40;;;;;;;33.83;20.50;;;;;;;;;;5133976;27;20418;-87
2024/01/26 02:10:07;;;;;;;31.95;20.83;;;;;;;;;;5098698;28;20400;-87
2024/01/26 02:12:34;;;;;;;34.63;21.33;;;;;;;;;;5097565;28;20423;-86
2024/01/26 02:15:00;;;;;;;33.83;21.38;;;;;;;;;;5127303;27;20407;-87
2024/01/26 02:17:31;;;;;;;32.37;21.27;;;;;;;;;;5115310;27;20561;-88
2024/01/26 02:19:57;;;;;;;31.10;21.17;;;;;;;;;;5124247;27;20484;-87
2024/01/26 02:22:23;;;;;;;32.38;21.27;;;;;;;;;;5128587;27;20392;-87
2024/01/26 02:24:49;;;;;;;31.90;20.83;;;;;;;;;;5129431;27;20396;-87
2024/01/26 02:27:15;;;;;;;31.50;20.10;;;;;;;;;;5131347;27;20407;-87
2024/01/26 02:29:42;;;;;;;33.63;20.35;;;;;;;;;;5094442;28;20430;-88
2024/01/26 02:32:09;;;;;;;31.10;20.20;;;;;;;;;;5097228;28;20408;-88
2024/01/26 02:34:35;;;;;;;32.00;21.00;;;;;;;;;;5094643;28;20406;-88
2024/01/26 02:37:01;;;;;;;31.85;20.85;;;;;;;;;;5110966;28;21022;-87
2024/01/26 02:39:28;;;;;;;33.33;20.98;;;;;;;;;;5088984;28;20499;-87
2024/01/26 02:41:55;;;;;;;32.38;20.60;;;;;;;;;;5144851;27;20395;-87
2024/01/26 02:44:22;;;;;;;32.17;20.90;;;;;;;;;;5099507;28;20423;-88
2024/01/26 02:46:48;;;;;;;32.60;20.83;;;;;;;;;;5101571;28;20445;-88
2024/01/26 02:49:14;;;;;;;33.53;21.23;;;;;;;;;;5115534;27;20390;-88
2024/01/26 02:51:40;;;;;;;33.83;21.73;;;;;;;;;;5094154;28;20819;-87
2024/01/26 02:54:06;;;;;;;32.23;20.73;;;;;;;;;;5131885;27;20480;-87
2024/01/26 02:56:32;;;;;;;33.17;21.45;;;;;;;;;;5107865;28;20444;-87
2024/01/26 02:58:58;;;;;;;33.20;20.35;;;;;;;;;;5137336;27;20908;-87
2024/01/26 03:01:24;;;;;;;32.30;19.92;;;;;;;;;;5101131;28;20429;-88
2024/01/26 03:03:50;;;;;;;34.57;21.07;;;;;;;;;;5113152;27;20424;-87
2024/01/26 03:06:17;;;;;;;31.98;20.25;;;;;;;;;;5110088;28;20750;-87
2024/01/26 03:08:44;;;;;;;30.30;20.08;;;;;;;;;;5092990;28;20517;-88
2024/01/26 03:11:12;;;;;;;33.25;20.48;;;;;;;;;;5093330;28;20497;-88
2024/01/26 03:13:40;;;;;;;32.83;20.23;;;;;;;;;;5095223;28;20800;-88
2024/01/26 03:16:06;;;;;;;34.03;20.65;;;;;;;;;;5110335;27;20405;-87
2024/01/26 03:18:32;;;;;;;31.30;20.10;;;;;;;;;;5100647;27;20424;-87
2024/01/26 03:20:58;;;;;;;31.17;19.08;;;;;;;;;;5107738;28;20739;-87
2024/01/26 03:23:24;;;;;;;31.65;18.75;;;;;;;;;;5109677;28;20432;-88
2024/01/26 03:25:50;;;;;;;29.63;19.40;;;;;;;;;;5076304;28;20909;-87
2024/01/26 03:28:16;;;;;;;31.03;18.50;;;;;;;;;;5122838;27;20476;-88
2024/01/26 03:30:43;;;;;;;31.27;18.95;;;;;;;;;;5106109;27;20403;-88
2024/01/26 03:33:09;;;;;;;31.60;19.08;;;;;;;;;;5128667;27;20433;-88
2024/01/26 03:35:36;;;;;;;32.60;18.65;;;;;;;;;;5112150;27;20418;-88
2024/01/26 03:38:02;;;;;;;33.33;18.20;;;;;;;;;;5109146;28;20986;-88
2024/01/26 03:40:28;;;;;;;30.75;17.63;;;;;;;;;;5122611;27;20438;-88
2024/01/26 03:42:55;;;;;;;30.35;17.80;;;;;;;;;;5114244;27;20733;-88
2024/01/26 03:45:21;;;;;;;31.42;18.30;;;;;;;;;;5102776;28;20405;-87
2024/01/26 03:47:47;;;;;;;35.03;17.67;;;;;;;;;;5105162;28;20396;-88
2024/01/26 03:50:13;;;;;;;31.95;18.63;;;;;;;;;;5080112;28;20585;-87
2024/01/26 03:52:39;;;;;;;35.03;19.90;;;;;;;;;;5095485;28;20402;-88
2024/01/26 03:55:08;;;;;;;33.58;19.02;;;;;;;;;;5123492;27;20411;-88
2024/01/26 03:57:35;;;;;;;31.05;17.85;;;;;;;;;;5090894;28;20481;-87
2024/01/26 04:00:02;;;;;;;33.30;18.40;;;;;;;;;;5112534;27;20477;-87
2024/01/26 04:02:28;;;;;;;32.85;18.90;;;;;;;;;;5121303;27;20396;-88
2024/01/26 04:04:54;;;;;;;36.33;19.67;;;;;;;;;;5123646;27;20446;-88
2024/01/26 04:07:20;;;;;;;35.78;19.58;;;;;;;;;;5111325;28;20483;-88
2024/01/26 04:09:46;;;;;;;33.42;19.05;;;;;;;;;;5092643;28;20476;-89
2024/01/26 04:12:12;;;;;;;36.53;20.33;;;;;;;;;;5115574;27;20408;-88
2024/01/26 04:14:38;;;;;;;35.20;19.90;;;;;;;;;;5091642;28;20435;-88
2024/01/26 04:17:04;;;;;;;38.03;19.85;;;;;;;;;;5080502;28;20776;-88
2024/01/26 04:19:30;;;;;;;34.28;19.50;;;;;;;;;;5104715;28;20409;-88
2024/01/26 04:21:56;;;;;;;37.75;20.70;;;;;;;;;;5128869;27;20403;-88
2024/01/26 04:24:22;;;;;;;34.90;19.90;;;;;;;;;;5110868;28;20480;-88
2024/01/26 04:26:48;;;;;;;34.28;19.38;;;;;;;;;;5125624;27;20775;-88
2024/01/26 04:29:15;;;;;;;34.33;20.40;;;;;;;;;;5128564;27;20533;-87
2024/01/26 04:31:43;;;;;;;37.28;20.05;;;;;;;;;;5093888;28;20398;-89
2024/01/26 04:34:09;;;;;;;34.72;19.00;;;;;;;;;;5093501;28;20412;-89
2024/01/26 04:36:36;;;;;;;33.70;19.52;;;;;;;;;;5091728;28;20404;-88
2024/01/26 04:39:02;;;;;;;33.17;18.83;;;;;;;;;;5113755;27;20932;-88
2024/01/26 04:41:28;;;;;;;34.72;19.27;;;;;;;;;;5094118;27;20424;-88
2024/01/26 04:43:55;;;;;;;33.33;19.27;;;;;;;;;;5102040;28;20394;-88
2024/01/26 04:46:21;;;;;;;32.80;18.70;;;;;;;;;;5118517;27;20413;-87
2024/01/26 04:48:47;;;;;;;28.55;18.02;;;;;;;;;;5092518;28;20406;-88
2024/01/26 04:51:13;;;;;;;27.70;17.65;;;;;;;;;;5147552;27;20482;-88
2024/01/26 04:53:39;;;;;;;29.27;17.63;;;;;;;;;;5094890;28;20414;-87
2024/01/26 04:56:06;;;;;;;28.98;17.70;;;;;;;;;;5112080;27;20398;-88
2024/01/26 04:58:32;;;;;;;27.05;17.25;;;;;;;;;;5096398;28;20451;-88
2024/01/26 05:00:58;;;;;;;29.23;17.47;;;;;;;;;;5125678;27;20532;-88
2024/01/26 05:03:24;;;;;;;27.80;16.75;;;;;;;;;;5111330;27;20471;-87
2024/01/26 05:05:50;;;;;;;26.60;16.80;;;;;;;;;;5097151;28;20476;-87
2024/01/26 05:08:16;;;;;;;29.63;16.63;;;;;;;;;;5106715;28;20884;-87
2024/01/26 05:10:42;;;;;;;27.10;16.90;;;;;;;;;;5116944;27;20402;-88
2024/01/26 05:13:10;;;;;;;29.13;17.17;;;;;;;;;;5120348;27;20411;-87
2024/01/26 05:15:36;;;;;;;23.37;16.10;;;;;;;;;;5121394;27;20426;-88
2024/01/26 05:18:03;;;;;;;26.60;16.55;;;;;;;;;;5107371;27;20948;-88
2024/01/26 05:20:30;;;;;;;28.08;16.88;;;;;;;;;;5090472;28;20414;-88
2024/01/26 05:22:56;;;;;;;27.83;17.63;;;;;;;;;;5107760;28;20401;-88
2024/01/26 05:25:22;;;;;;;26.65;17.00;;;;;;;;;;5107297;28;20420;-88
2024/01/26 05:27:48;;;;;;;25.50;17.35;;;;;;;;;;5091884;28;20402;-86
2024/01/26 05:30:14;;;;;;;27.08;17.88;;;;;;;;;;5109606;28;21005;-88
2024/01/26 05:32:40;;;;;;;29.48;18.05;;;;;;;;;;5129916;28;20408;-85
2024/01/26 05:35:07;;;;;;;30.25;18.30;;;;;;;;;;5121004;27;20440;-87
2024/01/26 05:37:33;;;;;;;27.13;18.20;;;;;;;;;;5107410;28;21080;-88
2024/01/26 05:39:59;;;;;;;28.15;18.38;;;;;;;;;;5113675;27;20400;-88
2024/01/26 05:42:25;;;;;;;28.45;18.38;;;;;;;;;;5117090;28;20396;-88
2024/01/26 05:44:51;;;;;;;30.33;18.45;;;;;;;;;;5103191;28;20400;-88
2024/01/26 05:47:18;;;;;;;29.83;18.80;;;;;;;;;;5108039;28;20494;-88
2024/01/26 05:49:44;;;;;;;31.25;19.05;;;;;;;;;;5091429;28;20413;-88
2024/01/26 05:52:10;;;;;;;33.20;18.92;;;;;;;;;;5110980;27;20477;-87
2024/01/26 05:54:36;;;;;;;29.10;18.73;;;;;;;;;;5093473;28;20427;-88
2024/01/26 05:57:03;;;;;;;32.17;18.23;;;;;;;;;;5089217;28;20397;-88
2024/01/26 05:59:29;;;;;;;28.60;19.17;;;;;;;;;;5090766;28;20405;-88
2024/01/26 06:01:55;;;;;;;28.48;19.00;;;;;;;;;;5120745;27;20400;-87
2024/01/26 06:04:21;;;;;;;30.80;18.95;;;;;;;;;;5099924;28;20901;-87
2024/01/26 06:06:47;;;;;;;29.33;19.52;;;;;;;;;;5109175;28;20400;-88
2024/01/26 06:09:13;;;;;;;31.93;18.80;;;;;;;;;;5092271;28;20544;-87
2024/01/26 06:11:43;;;;;;;32.58;18.88;;;;;;;;;;5101155;28;20430;-88
2024/01/26 06:14:09;;;;;;;31.42;20.05;;;;;;;;;;5122143;27;20400;-88
2024/01/26 06:16:37;;;;;;;31.50;19.05;;;;;;;;;;5121790;28;20467;-89
2024/01/26 06:19:04;;;;;;;31.77;19.15;;;;;;;;;;5109371;28;20416;-88
2024/01/26 06:21:30;;;;;;;30.55;19.33;;;;;;;;;;5085903;28;20471;-88
2024/01/26 06:23:56;;;;;;;30.00;18.67;;;;;;;;;;5110951;28;20733;-88
2024/01/26 06:26:23;;;;;;;30.80;19.40;;;;;;;;;;5119384;28;20408;-88
2024/01/26 06:28:49;;;;;;;35.97;19.15;;;;;;;;;;5126628;27;20407;-89
2024/01/26 06:31:15;;;;;;;34.33;19.58;;;;;;;;;;5112229;27;20449;-88
2024/01/26 06:33:41;;;;;;;30.77;18.90;;;;;;;;;;5089294;28;20401;-89
2024/01/26 06:36:07;;;;;;;49.85;19.95;;;;;;;;;;5109519;27;20921;-89
2024/01/26 06:38:33;;;;;;;37.42;20.25;;;;;;;;;;5117607;27;20493;-87
2024/01/26 06:41:00;;;;;;;52.17;21.00;;;;;;;;;;5111845;28;20494;-87
2024/01/26 06:43:26;;;;;;;32.22;18.25;;;;;;;;;;5095555;28;20404;-87
2024/01/26 06:45:52;;;;;;;34.10;17.67;;;;;;;;;;5112213;27;20874;-86
2024/01/26 06:48:19;;;;;;;33.00;17.80;;;;;;;;;;5117817;27;20793;-86
2024/01/26 06:50:45;;;;;;;32.40;16.97;;;;;;;;;;5079918;28;20520;-86
2024/01/26 06:53:11;;;;;;;34.63;17.80;;;;;;;;;;5100762;28;20488;-86
2024/01/26 06:55:37;;;;;;;26.55;15.85;;;;;;;;;;5100254;27;20404;-84
2024/01/26 06:58:03;;;;;;;31.23;16.80;;;;;;;;;;5099608;28;20428;-84
2024/01/26 07:00:29;;;;;;;25.80;15.43;;;;;;;;;;5093861;28;20484;-85
2024/01/26 07:02:56;;;;;;;26.00;15.70;;;;;;;;;;5115227;27;21122;-87
2024/01/26 07:05:22;;;;;;;24.15;14.48;;;;;;;;;;5104045;28;20398;-87
2024/01/26 07:07:48;;;;;;;23.00;14.60;;;;;;;;;;5111000;27;20420;-87
2024/01/26 07:10:14;;;;;;;22.52;14.02;;;;;;;;;;5110384;27;20433;-87
2024/01/26 07:12:41;;;;;;;26.48;15.27;;;;;;;;;;5104270;28;20404;-87
2024/01/26 07:15:09;;;;;;;22.98;13.45;;;;;;;;;;5100790;28;20432;-87
2024/01/26 07:17:36;;;;;;;23.73;13.68;;;;;;;;;;5096968;28;20928;-87
2024/01/26 07:20:03;;;;;;;18.25;13.23;;;;;;;;;;5096669;28;20402;-87
2024/01/26 07:22:30;;;;;;;22.63;12.75;;;;;;;;;;5108044;28;20471;-88
2024/01/26 07:24:56;;;;;;;19.33;11.60;;;;;;;;;;5100678;28;20500;-87
2024/01/26 07:27:22;;;;;;;21.27;11.75;;;;;;;;;;5100237;28;20717;-86
2024/01/26 07:29:48;;;;;;;16.98;10.27;;;;;;;;;;5124329;27;20750;-86
2024/01/26 07:32:15;;;;;;;18.73;10.40;;;;;;;;;;5121038;27;20402;-86
2024/01/26 07:34:41;;;;;;;19.42;11.38;;;;;;;;;;5096560;27;20892;-86
2024/01/26 07:37:07;;;;;;;19.02;10.23;;;;;;;;;;5094598;28;20756;-86
2024/01/26 07:39:34;;;;;;;14.88;9.52;;;;;;;;;;5095512;28;20413;-86
2024/01/26 07:42:00;;;;;;;17.60;9.75;;;;;;;;;;5108726;27;20581;-86
2024/01/26 07:44:26;;;;;;;17.05;10.07;;;;;;;;;;5130690;27;20749;-81
2024/01/26 07:46:52;;;;;;;15.48;9.30;;;;;;;;;;5097482;28;20446;-81
2024/01/26 07:49:19;;;;;;;14.57;9.70;;;;;;;;;;5097502;27;20458;-81
2024/01/26 07:51:45;;;;;;;14.55;9.13;;;;;;;;;;5075330;28;20398;-81
2024/01/26 07:54:11;;;;;;;12.98;8.52;;;;;;;;;;5131758;27;20412;-81
2024/01/26 07:56:37;;;;;;;13.98;8.65;;;;;;;;;;5084248;28;20402;-81
2024/01/26 07:59:03;;;;;;;13.00;8.70;;;;;;;;;;5082892;28;20416;-81
2024/01/26 08:01:29;;;;;;;12.40;8.48;;;;;;;;;;5076880;28;20827;-81
2024/01/26 08:03:55;;;;;;;14.05;8.90;;;;;;;;;;5077555;28;20423;-81
2024/01/26 08:06:21;;;;;;;11.57;7.50;;;;;;;;;;5116810;27;20407;-81
2024/01/26 08:08:47;;;;;;;11.35;7.57;;;;;;;;;;5117011;27;20408;-81
2024/01/26 08:11:13;;;;;;;10.07;6.05;;;;;;;;;;5110667;27;20877;-81
2024/01/26 08:13:40;;;;;;;9.30;6.18;;;;;;;;;;5074282;28;20405;-82
2024/01/26 08:16:08;;;;;;;10.50;6.45;;;;;;;;;;5092984;28;20392;-82
2024/01/26 08:18:34;;;;;;;9.20;6.13;;;;;;;;;;5095910;28;20904;-81
2024/01/26 08:21:00;;;;;;;8.43;5.82;;;;;;;;;;5088736;28;20412;-81
2024/01/26 08:23:26;;;;;;;8.80;6.05;;;;;;;;;;5091685;28;20421;-81
2024/01/26 08:25:52;;;;;;;9.43;6.55;;;;;;;;;;5114601;27;20444;-82
2024/01/26 08:28:18;;;;;;;10.53;7.67;;;;;;;;;;5095655;27;20443;-82
2024/01/26 08:30:44;;;;;;;10.65;7.47;;;;;;;;;;5113505;27;20425;-81
2024/01/26 08:33:10;;;;;;;11.77;8.32;;;;;;;;;;5093802;28;20538;-82
2024/01/26 08:35:37;;;;;;;11.88;8.38;;;;;;;;;;5079161;28;20394;-82
2024/01/26 08:38:03;;;;;;;15.63;9.10;;;;;;;;;;5108009;27;20424;-81
2024/01/26 08:40:29;;;;;;;15.35;9.40;;;;;;;;;;5101108;28;20404;-81
2024/01/26 08:42:55;;;;;;;18.47;9.97;;;;;;;;;;5095680;27;20396;-81
2024/01/26 08:45:21;;;;;;;16.20;9.25;;;;;;;;;;5084880;28;20393;-80
2024/01/26 08:47:47;;;;;;;20.38;9.38;;;;;;;;;;5130621;27;20424;-81
2024/01/26 08:50:13;;;;;;;16.90;9.32;;;;;;;;;;5110933;27;20412;-81
2024/01/26 08:52:39;;;;;;;15.73;8.70;;;;;;;;;;5106758;28;20405;-80
2024/01/26 08:55:06;;;;;;;18.42;9.18;;;;;;;;;;5099356;27;20400;-81
2024/01/26 08:57:32;;;;;;;19.42;8.10;;;;;;;;;;5103627;27;20426;-81
2024/01/26 09:00:00;;;;;;;16.63;8.63;;;;;;;;;;5098276;27;20923;-81
2024/01/26 09:02:26;;;;;;;19.15;7.88;;;;;;;;;;5089982;28;20430;-81
2024/01/26 09:04:53;;;;;;;18.80;8.30;;;;;;;;;;5083812;27;20420;-80
2024/01/26 09:07:21;;;;;;;18.42;8.20;;;;;;;;;;5086244;28;20424;-81
2024/01/26 09:09:48;;;;;;;16.00;6.85;;;;;;;;;;5075229;28;20445;-81
2024/01/26 09:12:14;;;;;;;14.95;6.80;;;;;;;;;;5099067;28;20398;-81
2024/01/26 09:14:40;;;;;;;6.93;2.50;;;;;;;;;;5148384;27;20453;-81
2024/01/26 09:17:07;;;;;;;9.02;2.20;;;;;;;;;;5101503;28;20465;-81
2024/01/26 09:19:35;;;;;;;7.30;1.63;;;;;;;;;;5106987;27;20442;-80
2024/01/26 09:22:03;;;;;;;5.10;1.57;;;;;;;;;;5082256;28;20433;-82
2024/01/26 09:24:29;;;;;;;5.00;1.45;;;;;;;;;;5112581;27;20402;-81
2024/01/26 09:26:56;;;;;;;6.18;1.63;;;;;;;;;;5106287;28;20415;-80
2024/01/26 09:29:23;;;;;;;7.20;1.58;;;;;;;;;;5093893;28;20406;-80
2024/01/26 09:31:50;;;;;;;7.50;1.65;;;;;;;;;;5100173;28;20526;-80
2024/01/26 09:34:16;;;;;;;5.88;1.35;;;;;;;;;;5084363;28;20410;-80
2024/01/26 09:36:42;;;;;;;9.73;2.10;;;;;;;;;;5087124;28;20856;-80
2024/01/26 09:39:09;;;;;;;8.35;1.98;;;;;;;;;;5125415;27;20429;-80
2024/01/26 09:41:35;;;;;;;8.95;1.70;;;;;;;;;;5077510;28;20416;-80
2024/01/26 09:44:02;;;;;;;9.93;2.33;;;;;;;;;;5099615;28;20409;-80
2024/01/26 09:46:30;;;;;;;13.07;2.60;;;;;;;;;;5133477;27;20395;-80
2024/01/26 09:48:57;;;;;;;12.32;2.20;;;;;;;;;;5087175;28;20473;-80
2024/01/26 09:51:27;;;;;;;18.73;2.92;;;;;;;;;;5081946;28;20408;-81
2024/01/26 09:53:56;;;;;;;14.57;2.53;;;;;;;;;;5104608;28;20758;-81
2024/01/26 09:56:22;;;;;;;12.68;2.58;;;;;;;;;;5104943;28;20432;-80
2024/01/26 09:58:48;;;;;;;17.85;3.53;;;;;;;;;;5090178;28;20431;-80
2024/01/26 10:01:18;;;;;;;23.45;3.47;;;;;;;;;;5105477;28;20384;-80
2024/01/26 10:03:44;;;;;;;17.17;3.20;;;;;;;;;;5091534;28;20403;-81
2024/01/26 10:06:11;;;;;;;18.33;3.07;;;;;;;;;;5109337;28;20396;-81
2024/01/26 10:08:38;;;;;;;18.30;3.90;;;;;;;;;;5101294;28;20420;-80
2024/01/26 10:11:04;;;;;;;20.77;3.40;;;;;;;;;;5112242;28;20471;-80
2024/01/26 10:13:30;;;;;;;17.92;3.17;;;;;;;;;;5096514;28;20483;-81
2024/01/26 10:16:10;;;;;;;19.17;3.65;;;;;;;;;;5095258;28;20437;-81
2024/01/26 10:18:43;;;;;;;18.17;3.25;;;;;;;;;;5092667;28;20551;-81
2024/01/26 10:21:10;;;;;;;19.88;3.50;;;;;;;;;;5100331;28;20512;-81
2024/01/26 10:23:36;;;;;;;16.98;3.70;;;;;;;;;;5102131;27;20429;-80
2024/01/26 10:26:02;;;;;;;24.20;4.07;;;;;;;;;;5096732;27;20455;-81
2024/01/26 10:28:29;;;;;;;23.73;4.35;;;;;;;;;;5088839;28;20928;-81
2024/01/26 10:30:55;;;;;;;20.65;4.18;;;;;;;;;;5087059;28;20432;-81
2024/01/26 10:33:25;;;;;;;19.55;3.90;;;;;;;;;;5079448;28;20429;-81
2024/01/26 10:35:51;;;;;;;19.77;3.70;;;;;;;;;;5104718;28;20442;-81
2024/01/26 10:38:18;;;;;;;19.48;3.97;;;;;;;;;;5102408;27;20509;-81
2024/01/26 10:40:44;;;;;;;23.27;3.85;;;;;;;;;;5130378;27;20426;-81
2024/01/26 10:43:14;;;;;;;19.85;3.58;;;;;;;;;;5117728;27;20964;-81
2024/01/26 10:45:40;;;;;;;21.13;4.35;;;;;;;;;;5099877;27;20428;-81
2024/01/26 10:48:08;;;;;;;18.02;3.20;;;;;;;;;;5110216;27;20443;-81
2024/01/26 10:50:35;;;;;;;20.25;3.90;;;;;;;;;;5090269;28;20811;-81
2024/01/26 10:53:02;;;;;;;19.60;4.15;;;;;;;;;;5109052;27;20440;-82
2024/01/26 10:55:28;;;;;;;16.63;4.18;;;;;;;;;;5128881;27;20925;-81
2024/01/26 10:57:54;;;;;;;17.93;4.53;;;;;;;;;;5100319;28;20918;-81
2024/01/26 11:00:21;;;;;;;19.23;3.83;;;;;;;;;;5111480;27;20467;-81
2024/01/26 11:02:47;;;;;;;18.98;3.88;;;;;;;;;;5111909;28;20828;-81
2024/01/26 11:05:13;;;;;;;17.60;4.17;;;;;;;;;;5093928;28;20449;-80
2024/01/26 11:07:39;;;;;;;19.05;3.83;;;;;;;;;;5111925;28;20405;-81
2024/01/26 11:10:10;;;;;;;20.53;4.57;;;;;;;;;;5084480;28;20424;-81
2024/01/26 11:12:36;;;;;;;22.90;4.40;;;;;;;;;;5110939;28;20512;-81
2024/01/26 11:15:13;;;;;;;18.98;4.70;;;;;;;;;;5100075;27;20418;-81
2024/01/26 11:17:59;;;;;;;20.08;3.97;;;;;;;;;;5116590;27;20423;-82
2024/01/26 11:20:30;;;;;;;22.08;3.78;;;;;;;;;;5078022;28;20402;-82
2024/01/26 11:23:07;;;;;;;25.08;4.82;;;;;;;;;;5107307;28;20389;-82
2024/01/26 11:25:34;;;;;;;20.65;4.30;;;;;;;;;;5107999;27;20387;-82
2024/01/26 11:28:00;;;;;;;21.02;4.30;;;;;;;;;;5104884;28;20900;-82
2024/01/26 11:30:27;;;;;;;20.38;4.53;;;;;;;;;;5094808;28;20412;-82
2024/01/26 11:32:53;;;;;;;21.38;3.78;;;;;;;;;;5135554;27;20430;-82
2024/01/26 11:35:20;;;;;;;21.52;4.07;;;;;;;;;;5139292;27;20519;-81
2024/01/26 11:37:47;;;;;;;16.55;3.50;;;;;;;;;;5100281;28;20980;-81
2024/01/26 11:40:14;;;;;;;16.52;3.42;;;;;;;;;;5095938;28;20743;-81
2024/01/26 11:42:43;;;;;;;19.07;4.27;;;;;;;;;;5090068;28;20410;-81
2024/01/26 11:45:14;;;;;;;15.00;3.25;;;;;;;;;;5106157;28;20392;-81
2024/01/26 11:47:40;;;;;;;12.20;3.23;;;;;;;;;;5088274;28;20480;-81
2024/01/26 11:50:10;;;;;;;14.07;3.58;;;;;;;;;;5128824;27;20485;-81
2024/01/26 11:52:36;;;;;;;12.20;2.85;;;;;;;;;;5094616;28;20421;-82
2024/01/26 11:55:03;;;;;;;13.82;2.83;;;;;;;;;;5097380;28;20398;-82
2024/01/26 11:57:30;;;;;;;12.70;2.67;;;;;;;;;;5083299;28;20614;-82
2024/01/26 11:59:59;;;;;;;17.55;4.10;;;;;;;;;;5100085;28;20482;-81
2024/01/26 12:02:26;;;;;;;15.35;3.28;;;;;;;;;;5102934;28;20429;-82
2024/01/26 12:04:52;;;;;;;15.82;3.38;;;;;;;;;;5079168;28;20403;-82
2024/01/26 12:07:18;;;;;;;17.60;3.35;;;;;;;;;;5136934;27;20396;-82
2024/01/26 12:09:44;;;;;;;17.23;4.23;;;;;;;;;;5136589;27;20537;-82
2024/01/26 12:12:11;;;;;;;21.00;4.38;;;;;;;;;;5083864;28;20916;-82
2024/01/26 12:14:37;;;;;;;22.90;4.23;;;;;;;;;;5099486;28;20793;-82
2024/01/26 12:17:04;;;;;;;18.35;4.18;;;;;;;;;;5100336;28;20388;-82
2024/01/26 12:19:31;;;;;;;20.42;4.43;;;;;;;;;;5099352;28;20414;-82
2024/01/26 12:21:58;;;;;;;20.30;4.03;;;;;;;;;;5129961;27;20502;-82
2024/01/26 12:24:24;;;;;;;20.58;4.18;;;;;;;;;;5097007;28;20404;-82
2024/01/26 12:26:51;;;;;;;17.92;4.18;;;;;;;;;;5111893;28;20876;-81
2024/01/26 12:29:17;;;;;;;15.23;3.22;;;;;;;;;;5111097;28;20450;-80
2024/01/26 12:31:43;;;;;;;16.23;4.07;;;;;;;;;;5106105;28;20419;-81
2024/01/26 12:34:13;;;;;;;20.08;4.05;;;;;;;;;;5087272;28;20422;-81
2024/01/26 12:36:39;;;;;;;16.70;4.10;;;;;;;;;;5101043;28;20435;-80
2024/01/26 12:39:05;;;;;;;20.80;3.78;;;;;;;;;;5117769;27;20532;-80
2024/01/26 12:41:32;;;;;;;17.25;4.15;;;;;;;;;;5125164;27;20401;-80
2024/01/26 12:43:59;;;;;;;16.33;3.75;;;;;;;;;;5090599;28;20432;-81
2024/01/26 12:46:26;;;;;;;17.13;3.38;;;;;;;;;;5077928;28;20402;-81
2024/01/26 12:48:52;;;;;;;18.95;4.10;;;;;;;;;;5094101;28;20750;-81
2024/01/26 12:51:19;;;;;;;22.10;4.80;;;;;;;;;;5108199;28;20403;-82
2024/01/26 12:53:45;;;;;;;15.02;4.10;;;;;;;;;;5086407;28;20399;-81
2024/01/26 12:56:11;;;;;;;16.30;3.17;;;;;;;;;;5104402;28;20470;-81
2024/01/26 12:58:37;;;;;;;18.95;3.55;;;;;;;;;;5096248;28;20438;-81
2024/01/26 13:01:03;;;;;;;11.40;2.50;;;;;;;;;;5136241;27;20927;-81
2024/01/26 13:03:29;;;;;;;17.63;3.88;;;;;;;;;;5108765;27;20396;-81
2024/01/26 13:05:55;;;;;;;15.48;2.92;;;;;;;;;;5103948;27;20835;-81
2024/01/26 13:08:22;;;;;;;13.80;3.22;;;;;;;;;;5112942;27;20415;-83
2024/01/26 13:10:48;;;;;;;12.60;2.67;;;;;;;;;;5139813;27;20489;-81
2024/01/26 13:13:14;;;;;;;13.77;3.05;;;;;;;;;;5089927;28;20403;-81
2024/01/26 13:15:40;;;;;;;15.90;3.50;;;;;;;;;;5090770;28;21022;-81
2024/01/26 13:18:07;;;;;;;9.95;2.10;;;;;;;;;;5128791;27;20517;-82
2024/01/26 13:20:33;;;;;;;8.73;1.90;;;;;;;;;;5090730;27;20454;-82
2024/01/26 13:22:59;;;;;;;11.23;2.35;;;;;;;;;;5087094;28;20414;-82
2024/01/26 13:25:26;;;;;;;9.45;2.17;;;;;;;;;;5108601;28;20449;-82
2024/01/26 13:27:52;;;;;;;13.23;2.30;;;;;;;;;;5099336;28;20424;-81
2024/01/26 13:30:18;;;;;;;10.77;2.15;;;;;;;;;;5101140;28;20428;-81
2024/01/26 13:32:47;;;;;;;10.27;2.17;;;;;;;;;;5086383;28;20750;-81
2024/01/26 13:35:13;;;;;;;9.95;2.15;;;;;;;;;;5097115;28;20934;-86
2024/01/26 13:37:39;;;;;;;10.00;2.17;;;;;;;;;;5103241;28;20420;-88
2024/01/26 13:40:06;;;;;;;8.85;2.08;;;;;;;;;;5091625;28;20489;-87
2024/01/26 13:42:33;;;;;;;9.98;2.33;;;;;;;;;;5100178;28;20422;-87
2024/01/26 13:45:02;;;;;;;8.93;2.07;;;;;;;;;;5129975;27;20455;-87
2024/01/26 13:47:29;;;;;;;10.38;2.25;;;;;;;;;;5096484;28;20397;-87
2024/01/26 13:50:01;;;;;;;9.68;2.10;;;;;;;;;;5146338;27;20866;-87
2024/01/26 13:52:27;;;;;;;8.77;1.90;;;;;;;;;;5083812;28;20410;-86
2024/01/26 13:54:53;;;;;;;8.90;2.00;;;;;;;;;;5067947;28;20394;-87
2024/01/26 13:57:20;;;;;;;10.77;2.30;;;;;;;;;;5094089;28;20479;-87
2024/01/26 13:59:46;;;;;;;11.35;2.08;;;;;;;;;;5135664;27;20445;-87
2024/01/26 14:02:12;;;;;;;13.15;3.13;;;;;;;;;;5132756;27;20425;-87
2024/01/26 14:04:39;;;;;;;14.90;2.63;;;;;;;;;;5104699;28;20907;-88
2024/01/26 14:07:05;;;;;;;11.53;2.13;;;;;;;;;;5093243;28;20392;-88
2024/01/26 14:09:31;;;;;;;11.80;2.20;;;;;;;;;;5109910;27;20495;-87
2024/01/26 14:11:57;;;;;;;13.60;2.95;;;;;;;;;;5105857;28;20406;-86
2024/01/26 14:14:24;;;;;;;12.75;2.58;;;;;;;;;;5096652;28;20744;-86
2024/01/26 14:16:50;;;;;;;17.08;2.70;;;;;;;;;;5150088;27;20407;-87
2024/01/26 14:19:16;;;;;;;9.88;2.60;;;;;;;;;;5092042;28;20420;-87